Etusivu
METAR-TAF:

METAR-TAF

Lentoasemat :

Marshall, Missouri, Yhdysvallat

Leveyspiiri: 39-05-44N, Pituuspiiri: 093-12-10W, korkeus merenpinnasta: 237 m

Tämänhetkinen sää

Tämä raportti tehtiin 2 tuntia ja 13 minuuttia sitten, kello 00.15 UTC
Tuuli 3 kn lännestä/luoteesta
Lämpötila 10°C
Kosteus 57%
Ilmanpaine 1006 hPa
Näkyvyys: 16.1 km
Hajonneita pilviä 6500 ft:n korkeudessa

METAR: KMHL 190015Z AUTO 29003KT 10SM BKN065 10/02 A2972 RMK AO2 TSNO PWINO

Aika: 20:28 (02:28 UTC)


TAF: puuttuu

Säähavainnot ja -ennusteet yli 4000 lentoasemalta (METAR- ja TAF-raportit).

Käytössä olevat sääasemat on merkitty karttaan keltaisilla ja punaisilla pisteillä.

Aseta hiiri pisteen päälle nähdäksesi sääaseman nimen.

Klikkaa sitten nähdäksesi säähavainnot ja -ennusteet.

Kartan vaihtaminen: klikkaa mustalla rastilla varustettuja vihreitä pisteitä, niin voit zoomata sisään; viivalla varustettua vihreää pistettä, niin voit zoomata ulos tai vihreitä nuolia, niin pääset viereisille kartoille.


METAR-TAF: